sensor_id;sensor_type;location;lat;lon;timestamp;P1;durP1;ratioP1;P2;durP2;ratioP2
18102;SDS011;9178;51.120;6.192;2022-09-09T00:01:43;3.87;;;1.10;;
18102;SDS011;9178;51.120;6.192;2022-09-09T00:04:18;3.17;;;0.90;;
18102;SDS011;9178;51.120;6.192;2022-09-09T00:06:55;0.70;;;0.70;;
18102;SDS011;9178;51.120;6.192;2022-09-09T00:09:30;2.10;;;0.70;;
18102;SDS011;9178;51.120;6.192;2022-09-09T00:12:05;2.73;;;1.00;;
18102;SDS011;9178;51.120;6.192;2022-09-09T00:14:37;2.70;;;0.80;;
18102;SDS011;9178;51.120;6.192;2022-09-09T00:17:12;0.63;;;0.63;;
18102;SDS011;9178;51.120;6.192;2022-09-09T00:19:46;2.53;;;0.80;;
18102;SDS011;9178;51.120;6.192;2022-09-09T00:22:21;1.87;;;1.00;;
18102;SDS011;9178;51.120;6.192;2022-09-09T00:24:52;1.80;;;0.83;;
18102;SDS011;9178;51.120;6.192;2022-09-09T00:27:24;3.50;;;1.00;;
18102;SDS011;9178;51.120;6.192;2022-09-09T00:29:57;1.50;;;0.90;;
18102;SDS011;9178;51.120;6.192;2022-09-09T00:32:39;0.97;;;0.63;;
18102;SDS011;9178;51.120;6.192;2022-09-09T00:35:12;5.23;;;1.07;;
18102;SDS011;9178;51.120;6.192;2022-09-09T00:37:44;3.40;;;1.03;;
18102;SDS011;9178;51.120;6.192;2022-09-09T00:40:18;3.60;;;0.97;;
18102;SDS011;9178;51.120;6.192;2022-09-09T00:42:52;2.93;;;0.90;;
18102;SDS011;9178;51.120;6.192;2022-09-09T00:45:37;1.27;;;0.70;;
18102;SDS011;9178;51.120;6.192;2022-09-09T00:48:18;3.13;;;0.97;;
18102;SDS011;9178;51.120;6.192;2022-09-09T00:50:55;2.97;;;0.80;;
18102;SDS011;9178;51.120;6.192;2022-09-09T00:53:29;0.80;;;0.80;;
18102;SDS011;9178;51.120;6.192;2022-09-09T00:56:07;3.63;;;0.83;;
18102;SDS011;9178;51.120;6.192;2022-09-09T00:58:38;3.10;;;1.10;;
18102;SDS011;9178;51.120;6.192;2022-09-09T01:01:08;1.53;;;0.77;;
18102;SDS011;9178;51.120;6.192;2022-09-09T01:03:38;1.73;;;0.77;;
18102;SDS011;9178;51.120;6.192;2022-09-09T01:06:14;2.00;;;0.63;;
18102;SDS011;9178;51.120;6.192;2022-09-09T01:08:49;6.90;;;1.10;;
18102;SDS011;9178;51.120;6.192;2022-09-09T01:11:26;3.50;;;0.83;;
18102;SDS011;9178;51.120;6.192;2022-09-09T01:14:01;1.47;;;0.70;;
18102;SDS011;9178;51.120;6.192;2022-09-09T01:16:39;4.60;;;0.90;;
18102;SDS011;9178;51.120;6.192;2022-09-09T01:19:08;3.07;;;0.90;;
18102;SDS011;9178;51.120;6.192;2022-09-09T01:21:44;4.40;;;0.87;;
18102;SDS011;9178;51.120;6.192;2022-09-09T01:24:22;2.20;;;1.33;;
18102;SDS011;9178;51.120;6.192;2022-09-09T01:26:55;1.67;;;0.87;;
18102;SDS011;9178;51.120;6.192;2022-09-09T01:29:25;2.37;;;0.90;;
18102;SDS011;9178;51.120;6.192;2022-09-09T01:31:52;2.33;;;0.97;;
18102;SDS011;9178;51.120;6.192;2022-09-09T01:34:21;2.17;;;0.80;;
18102;SDS011;9178;51.120;6.192;2022-09-09T01:36:49;3.67;;;0.90;;
18102;SDS011;9178;51.120;6.192;2022-09-09T01:39:22;1.70;;;0.90;;
18102;SDS011;9178;51.120;6.192;2022-09-09T01:41:49;1.83;;;0.87;;
18102;SDS011;9178;51.120;6.192;2022-09-09T01:44:17;2.80;;;1.10;;
18102;SDS011;9178;51.120;6.192;2022-09-09T01:46:45;5.07;;;1.13;;
18102;SDS011;9178;51.120;6.192;2022-09-09T01:49:13;1.10;;;0.90;;
18102;SDS011;9178;51.120;6.192;2022-09-09T01:51:40;1.50;;;1.00;;
18102;SDS011;9178;51.120;6.192;2022-09-09T01:54:09;1.77;;;0.90;;
18102;SDS011;9178;51.120;6.192;2022-09-09T01:56:39;4.40;;;1.00;;
18102;SDS011;9178;51.120;6.192;2022-09-09T01:59:17;5.03;;;1.07;;
18102;SDS011;9178;51.120;6.192;2022-09-09T02:01:57;39.40;;;3.07;;
18102;SDS011;9178;51.120;6.192;2022-09-09T02:04:36;3.77;;;1.10;;
18102;SDS011;9178;51.120;6.192;2022-09-09T02:07:06;4.73;;;1.00;;
18102;SDS011;9178;51.120;6.192;2022-09-09T02:09:56;2.20;;;0.90;;
18102;SDS011;9178;51.120;6.192;2022-09-09T02:12:27;1.93;;;0.90;;
18102;SDS011;9178;51.120;6.192;2022-09-09T02:14:59;4.10;;;0.90;;
18102;SDS011;9178;51.120;6.192;2022-09-09T02:17:31;3.90;;;1.20;;
18102;SDS011;9178;51.120;6.192;2022-09-09T02:20:03;3.60;;;0.93;;
18102;SDS011;9178;51.120;6.192;2022-09-09T02:22:34;3.97;;;1.10;;
18102;SDS011;9178;51.120;6.192;2022-09-09T02:25:05;3.37;;;1.00;;
18102;SDS011;9178;51.120;6.192;2022-09-09T02:27:34;3.97;;;1.10;;
18102;SDS011;9178;51.120;6.192;2022-09-09T02:30:03;3.80;;;1.07;;
18102;SDS011;9178;51.120;6.192;2022-09-09T02:32:32;2.07;;;1.00;;
18102;SDS011;9178;51.120;6.192;2022-09-09T02:35:02;7.63;;;1.47;;
18102;SDS011;9178;51.120;6.192;2022-09-09T02:37:33;4.53;;;1.30;;
18102;SDS011;9178;51.120;6.192;2022-09-09T02:40:04;7.30;;;1.60;;
18102;SDS011;9178;51.120;6.192;2022-09-09T02:42:38;3.57;;;1.10;;
18102;SDS011;9178;51.120;6.192;2022-09-09T02:45:08;4.33;;;1.30;;
18102;SDS011;9178;51.120;6.192;2022-09-09T02:47:37;4.33;;;1.47;;
18102;SDS011;9178;51.120;6.192;2022-09-09T02:50:12;3.53;;;1.13;;
18102;SDS011;9178;51.120;6.192;2022-09-09T02:52:47;2.73;;;1.67;;
18102;SDS011;9178;51.120;6.192;2022-09-09T02:55:29;5.97;;;1.70;;
18102;SDS011;9178;51.120;6.192;2022-09-09T02:58:04;3.00;;;1.20;;
18102;SDS011;9178;51.120;6.192;2022-09-09T03:00:34;6.23;;;1.80;;
18102;SDS011;9178;51.120;6.192;2022-09-09T03:03:02;5.63;;;1.67;;
18102;SDS011;9178;51.120;6.192;2022-09-09T03:05:29;3.80;;;1.23;;
18102;SDS011;9178;51.120;6.192;2022-09-09T03:07:56;6.47;;;1.40;;
18102;SDS011;9178;51.120;6.192;2022-09-09T03:10:24;5.03;;;1.20;;
18102;SDS011;9178;51.120;6.192;2022-09-09T03:12:51;3.93;;;1.60;;
18102;SDS011;9178;51.120;6.192;2022-09-09T03:15:17;4.80;;;1.30;;
18102;SDS011;9178;51.120;6.192;2022-09-09T03:17:45;2.70;;;1.40;;
18102;SDS011;9178;51.120;6.192;2022-09-09T03:20:13;4.97;;;1.80;;
18102;SDS011;9178;51.120;6.192;2022-09-09T03:22:40;2.37;;;1.40;;
18102;SDS011;9178;51.120;6.192;2022-09-09T03:25:09;2.13;;;1.10;;
18102;SDS011;9178;51.120;6.192;2022-09-09T03:27:36;2.90;;;1.20;;
18102;SDS011;9178;51.120;6.192;2022-09-09T03:30:03;9.13;;;2.07;;
18102;SDS011;9178;51.120;6.192;2022-09-09T03:32:31;5.33;;;1.27;;
18102;SDS011;9178;51.120;6.192;2022-09-09T03:34:59;4.13;;;1.20;;
18102;SDS011;9178;51.120;6.192;2022-09-09T03:37:26;6.10;;;1.80;;
18102;SDS011;9178;51.120;6.192;2022-09-09T03:39:52;6.90;;;1.70;;
18102;SDS011;9178;51.120;6.192;2022-09-09T03:42:20;2.30;;;1.23;;
18102;SDS011;9178;51.120;6.192;2022-09-09T03:44:47;6.40;;;1.50;;
18102;SDS011;9178;51.120;6.192;2022-09-09T03:47:16;7.83;;;2.03;;
18102;SDS011;9178;51.120;6.192;2022-09-09T03:49:44;9.40;;;2.07;;
18102;SDS011;9178;51.120;6.192;2022-09-09T03:52:13;5.47;;;1.60;;
18102;SDS011;9178;51.120;6.192;2022-09-09T03:54:40;7.20;;;1.63;;
18102;SDS011;9178;51.120;6.192;2022-09-09T03:57:07;5.20;;;1.53;;
18102;SDS011;9178;51.120;6.192;2022-09-09T03:59:35;6.17;;;1.77;;
18102;SDS011;9178;51.120;6.192;2022-09-09T04:02:02;5.97;;;2.27;;
18102;SDS011;9178;51.120;6.192;2022-09-09T04:04:29;9.30;;;1.77;;
18102;SDS011;9178;51.120;6.192;2022-09-09T04:06:56;8.17;;;1.70;;
18102;SDS011;9178;51.120;6.192;2022-09-09T04:09:24;4.90;;;1.77;;
18102;SDS011;9178;51.120;6.192;2022-09-09T04:11:51;4.07;;;1.80;;
18102;SDS011;9178;51.120;6.192;2022-09-09T04:14:18;5.23;;;1.67;;
18102;SDS011;9178;51.120;6.192;2022-09-09T04:16:45;10.77;;;2.33;;
18102;SDS011;9178;51.120;6.192;2022-09-09T04:19:12;5.47;;;1.90;;
18102;SDS011;9178;51.120;6.192;2022-09-09T04:21:39;7.53;;;1.93;;
18102;SDS011;9178;51.120;6.192;2022-09-09T04:24:06;9.20;;;2.47;;
18102;SDS011;9178;51.120;6.192;2022-09-09T04:26:35;7.90;;;2.20;;
18102;SDS011;9178;51.120;6.192;2022-09-09T04:29:03;16.83;;;2.90;;
18102;SDS011;9178;51.120;6.192;2022-09-09T04:31:32;5.67;;;2.00;;
18102;SDS011;9178;51.120;6.192;2022-09-09T04:34:00;9.80;;;1.70;;
18102;SDS011;9178;51.120;6.192;2022-09-09T04:36:30;6.10;;;1.87;;
18102;SDS011;9178;51.120;6.192;2022-09-09T04:38:57;6.93;;;1.90;;
18102;SDS011;9178;51.120;6.192;2022-09-09T04:41:24;6.03;;;2.13;;
18102;SDS011;9178;51.120;6.192;2022-09-09T04:43:53;11.53;;;2.00;;
18102;SDS011;9178;51.120;6.192;2022-09-09T04:46:20;4.43;;;2.20;;
18102;SDS011;9178;51.120;6.192;2022-09-09T04:48:48;6.50;;;2.20;;
18102;SDS011;9178;51.120;6.192;2022-09-09T04:51:14;7.37;;;1.83;;
18102;SDS011;9178;51.120;6.192;2022-09-09T04:53:42;5.40;;;1.93;;
18102;SDS011;9178;51.120;6.192;2022-09-09T04:56:09;5.57;;;1.80;;
18102;SDS011;9178;51.120;6.192;2022-09-09T04:58:37;8.13;;;1.97;;
18102;SDS011;9178;51.120;6.192;2022-09-09T05:01:08;10.67;;;2.00;;
18102;SDS011;9178;51.120;6.192;2022-09-09T05:03:36;13.40;;;2.50;;
18102;SDS011;9178;51.120;6.192;2022-09-09T05:06:07;5.47;;;2.00;;
18102;SDS011;9178;51.120;6.192;2022-09-09T05:08:35;4.10;;;1.80;;
18102;SDS011;9178;51.120;6.192;2022-09-09T05:11:02;10.00;;;1.90;;
18102;SDS011;9178;51.120;6.192;2022-09-09T05:13:29;5.33;;;1.90;;
18102;SDS011;9178;51.120;6.192;2022-09-09T05:15:57;10.87;;;2.27;;
18102;SDS011;9178;51.120;6.192;2022-09-09T05:18:27;5.43;;;1.90;;
18102;SDS011;9178;51.120;6.192;2022-09-09T05:20:58;8.37;;;1.90;;
18102;SDS011;9178;51.120;6.192;2022-09-09T05:23:25;8.30;;;2.23;;
18102;SDS011;9178;51.120;6.192;2022-09-09T05:25:55;13.80;;;2.67;;
18102;SDS011;9178;51.120;6.192;2022-09-09T05:28:23;8.87;;;2.07;;
18102;SDS011;9178;51.120;6.192;2022-09-09T05:31:00;6.87;;;2.03;;
18102;SDS011;9178;51.120;6.192;2022-09-09T05:33:31;7.03;;;1.63;;
18102;SDS011;9178;51.120;6.192;2022-09-09T05:35:58;7.27;;;1.80;;
18102;SDS011;9178;51.120;6.192;2022-09-09T05:38:26;6.00;;;1.70;;
18102;SDS011;9178;51.120;6.192;2022-09-09T05:40:54;8.13;;;2.37;;
18102;SDS011;9178;51.120;6.192;2022-09-09T05:43:22;9.37;;;1.97;;
18102;SDS011;9178;51.120;6.192;2022-09-09T05:45:58;6.97;;;2.00;;
18102;SDS011;9178;51.120;6.192;2022-09-09T05:48:27;13.57;;;2.57;;
18102;SDS011;9178;51.120;6.192;2022-09-09T05:50:57;9.60;;;2.00;;
18102;SDS011;9178;51.120;6.192;2022-09-09T05:53:24;12.27;;;2.03;;
18102;SDS011;9178;51.120;6.192;2022-09-09T05:55:57;4.53;;;1.83;;
18102;SDS011;9178;51.120;6.192;2022-09-09T05:58:25;7.87;;;2.13;;
18102;SDS011;9178;51.120;6.192;2022-09-09T06:00:52;9.03;;;2.20;;
18102;SDS011;9178;51.120;6.192;2022-09-09T06:03:25;6.20;;;1.90;;
18102;SDS011;9178;51.120;6.192;2022-09-09T06:05:57;8.93;;;2.13;;
18102;SDS011;9178;51.120;6.192;2022-09-09T06:08:25;4.87;;;1.63;;
18102;SDS011;9178;51.120;6.192;2022-09-09T06:10:52;10.87;;;1.60;;
18102;SDS011;9178;51.120;6.192;2022-09-09T06:13:19;10.43;;;1.93;;
18102;SDS011;9178;51.120;6.192;2022-09-09T06:15:49;7.37;;;1.70;;
18102;SDS011;9178;51.120;6.192;2022-09-09T06:18:16;7.90;;;2.20;;
18102;SDS011;9178;51.120;6.192;2022-09-09T06:20:43;6.37;;;1.90;;
18102;SDS011;9178;51.120;6.192;2022-09-09T06:23:20;7.83;;;1.70;;
18102;SDS011;9178;51.120;6.192;2022-09-09T06:25:47;12.27;;;2.13;;
18102;SDS011;9178;51.120;6.192;2022-09-09T06:28:14;5.27;;;1.40;;
18102;SDS011;9178;51.120;6.192;2022-09-09T06:30:41;8.70;;;2.00;;
18102;SDS011;9178;51.120;6.192;2022-09-09T06:33:08;7.90;;;1.80;;
18102;SDS011;9178;51.120;6.192;2022-09-09T06:35:35;10.93;;;1.87;;
18102;SDS011;9178;51.120;6.192;2022-09-09T06:38:02;11.77;;;1.93;;
18102;SDS011;9178;51.120;6.192;2022-09-09T06:40:30;8.30;;;1.83;;
18102;SDS011;9178;51.120;6.192;2022-09-09T06:42:59;6.53;;;2.00;;
18102;SDS011;9178;51.120;6.192;2022-09-09T06:45:26;7.90;;;1.87;;
18102;SDS011;9178;51.120;6.192;2022-09-09T06:47:54;6.83;;;1.67;;
18102;SDS011;9178;51.120;6.192;2022-09-09T06:50:21;9.20;;;2.17;;
18102;SDS011;9178;51.120;6.192;2022-09-09T06:52:48;6.57;;;2.00;;
18102;SDS011;9178;51.120;6.192;2022-09-09T06:55:15;12.20;;;1.80;;
18102;SDS011;9178;51.120;6.192;2022-09-09T06:57:44;5.83;;;2.30;;
18102;SDS011;9178;51.120;6.192;2022-09-09T07:00:11;6.90;;;1.90;;
18102;SDS011;9178;51.120;6.192;2022-09-09T07:02:39;4.73;;;1.80;;
18102;SDS011;9178;51.120;6.192;2022-09-09T07:05:06;11.57;;;2.47;;
18102;SDS011;9178;51.120;6.192;2022-09-09T07:07:34;8.80;;;1.90;;
18102;SDS011;9178;51.120;6.192;2022-09-09T07:10:02;6.60;;;1.97;;
18102;SDS011;9178;51.120;6.192;2022-09-09T07:12:29;6.63;;;1.90;;
18102;SDS011;9178;51.120;6.192;2022-09-09T07:14:57;9.37;;;2.10;;
18102;SDS011;9178;51.120;6.192;2022-09-09T07:17:25;7.93;;;1.80;;
18102;SDS011;9178;51.120;6.192;2022-09-09T07:19:53;8.70;;;1.93;;
18102;SDS011;9178;51.120;6.192;2022-09-09T07:22:20;6.47;;;2.40;;
18102;SDS011;9178;51.120;6.192;2022-09-09T07:24:47;10.57;;;1.90;;
18102;SDS011;9178;51.120;6.192;2022-09-09T07:27:14;8.05;;;1.75;;
18102;SDS011;9178;51.120;6.192;2022-09-09T07:29:41;6.47;;;1.87;;
18102;SDS011;9178;51.120;6.192;2022-09-09T07:32:12;8.13;;;1.80;;
18102;SDS011;9178;51.120;6.192;2022-09-09T07:34:40;8.65;;;1.85;;
18102;SDS011;9178;51.120;6.192;2022-09-09T07:37:07;7.13;;;1.58;;
18102;SDS011;9178;51.120;6.192;2022-09-09T07:39:36;11.45;;;1.95;;
18102;SDS011;9178;51.120;6.192;2022-09-09T07:42:03;7.78;;;1.83;;
18102;SDS011;9178;51.120;6.192;2022-09-09T07:44:31;3.72;;;1.55;;
18102;SDS011;9178;51.120;6.192;2022-09-09T07:46:59;5.50;;;1.58;;
18102;SDS011;9178;51.120;6.192;2022-09-09T07:49:28;5.40;;;1.25;;
18102;SDS011;9178;51.120;6.192;2022-09-09T07:51:54;7.47;;;1.30;;
18102;SDS011;9178;51.120;6.192;2022-09-09T07:54:21;8.90;;;1.45;;
18102;SDS011;9178;51.120;6.192;2022-09-09T07:56:48;4.63;;;1.20;;
18102;SDS011;9178;51.120;6.192;2022-09-09T07:59:16;7.63;;;1.38;;
18102;SDS011;9178;51.120;6.192;2022-09-09T08:01:44;5.18;;;1.40;;
18102;SDS011;9178;51.120;6.192;2022-09-09T08:04:13;5.38;;;1.27;;
18102;SDS011;9178;51.120;6.192;2022-09-09T08:06:44;7.70;;;1.52;;
18102;SDS011;9178;51.120;6.192;2022-09-09T08:09:12;3.83;;;1.13;;
18102;SDS011;9178;51.120;6.192;2022-09-09T08:11:39;4.70;;;1.10;;
18102;SDS011;9178;51.120;6.192;2022-09-09T08:14:07;4.78;;;1.73;;
18102;SDS011;9178;51.120;6.192;2022-09-09T08:16:36;5.55;;;1.48;;
18102;SDS011;9178;51.120;6.192;2022-09-09T08:19:08;6.78;;;1.30;;
18102;SDS011;9178;51.120;6.192;2022-09-09T08:21:36;7.97;;;1.48;;
18102;SDS011;9178;51.120;6.192;2022-09-09T08:24:06;4.25;;;1.23;;
18102;SDS011;9178;51.120;6.192;2022-09-09T08:26:36;6.22;;;1.50;;
18102;SDS011;9178;51.120;6.192;2022-09-09T08:29:06;6.35;;;1.50;;
18102;SDS011;9178;51.120;6.192;2022-09-09T08:31:36;3.92;;;1.13;;
18102;SDS011;9178;51.120;6.192;2022-09-09T08:34:04;5.35;;;1.30;;
18102;SDS011;9178;51.120;6.192;2022-09-09T08:36:33;5.28;;;1.55;;
18102;SDS011;9178;51.120;6.192;2022-09-09T08:39:02;4.18;;;1.23;;
18102;SDS011;9178;51.120;6.192;2022-09-09T08:41:35;3.45;;;1.15;;
18102;SDS011;9178;51.120;6.192;2022-09-09T08:44:18;7.18;;;1.08;;
18102;SDS011;9178;51.120;6.192;2022-09-09T08:46:54;8.90;;;1.52;;
18102;SDS011;9178;51.120;6.192;2022-09-09T08:49:38;5.80;;;1.17;;
18102;SDS011;9178;51.120;6.192;2022-09-09T08:52:19;3.53;;;1.05;;
18102;SDS011;9178;51.120;6.192;2022-09-09T08:54:49;4.13;;;1.17;;
18102;SDS011;9178;51.120;6.192;2022-09-09T08:57:21;2.78;;;1.10;;
18102;SDS011;9178;51.120;6.192;2022-09-09T08:59:52;6.00;;;1.02;;
18102;SDS011;9178;51.120;6.192;2022-09-09T09:02:21;4.28;;;1.45;;
18102;SDS011;9178;51.120;6.192;2022-09-09T09:05:05;4.28;;;0.98;;
18102;SDS011;9178;51.120;6.192;2022-09-09T09:07:42;3.30;;;1.00;;
18102;SDS011;9178;51.120;6.192;2022-09-09T09:10:21;3.30;;;0.80;;
18102;SDS011;9178;51.120;6.192;2022-09-09T09:13:13;4.68;;;1.10;;
18102;SDS011;9178;51.120;6.192;2022-09-09T09:15:41;3.25;;;0.93;;
18102;SDS011;9178;51.120;6.192;2022-09-09T09:18:12;4.05;;;1.00;;
18102;SDS011;9178;51.120;6.192;2022-09-09T09:20:42;8.30;;;1.20;;
18102;SDS011;9178;51.120;6.192;2022-09-09T09:23:20;4.93;;;1.10;;
18102;SDS011;9178;51.120;6.192;2022-09-09T09:25:49;2.40;;;0.95;;
18102;SDS011;9178;51.120;6.192;2022-09-09T09:28:20;2.70;;;0.73;;
18102;SDS011;9178;51.120;6.192;2022-09-09T09:30:52;3.15;;;0.93;;
18102;SDS011;9178;51.120;6.192;2022-09-09T09:33:23;4.20;;;0.80;;
18102;SDS011;9178;51.120;6.192;2022-09-09T09:35:53;2.42;;;1.00;;
18102;SDS011;9178;51.120;6.192;2022-09-09T09:38:21;2.58;;;0.77;;
18102;SDS011;9178;51.120;6.192;2022-09-09T09:40:49;3.35;;;1.15;;
18102;SDS011;9178;51.120;6.192;2022-09-09T09:43:21;1.98;;;0.80;;
18102;SDS011;9178;51.120;6.192;2022-09-09T09:45:52;3.50;;;0.90;;
18102;SDS011;9178;51.120;6.192;2022-09-09T09:48:19;4.05;;;1.00;;
18102;SDS011;9178;51.120;6.192;2022-09-09T09:50:46;3.35;;;0.75;;
18102;SDS011;9178;51.120;6.192;2022-09-09T09:53:17;2.25;;;0.77;;
18102;SDS011;9178;51.120;6.192;2022-09-09T09:55:50;4.03;;;1.00;;
18102;SDS011;9178;51.120;6.192;2022-09-09T09:58:21;5.00;;;0.77;;
18102;SDS011;9178;51.120;6.192;2022-09-09T10:00:49;4.72;;;1.15;;
18102;SDS011;9178;51.120;6.192;2022-09-09T10:03:22;3.20;;;0.88;;
18102;SDS011;9178;51.120;6.192;2022-09-09T10:05:51;3.90;;;0.93;;
18102;SDS011;9178;51.120;6.192;2022-09-09T10:08:18;4.00;;;0.95;;
18102;SDS011;9178;51.120;6.192;2022-09-09T10:10:54;2.03;;;0.80;;
18102;SDS011;9178;51.120;6.192;2022-09-09T10:13:33;2.85;;;0.90;;
18102;SDS011;9178;51.120;6.192;2022-09-09T10:16:21;1.40;;;0.60;;
18102;SDS011;9178;51.120;6.192;2022-09-09T10:18:58;4.32;;;0.82;;
18102;SDS011;9178;51.120;6.192;2022-09-09T10:24:24;5.30;;;0.90;;
18102;SDS011;9178;51.120;6.192;2022-09-09T10:27:32;5.38;;;1.08;;
18102;SDS011;9178;51.120;6.192;2022-09-09T10:30:11;4.28;;;1.08;;
18102;SDS011;9178;51.120;6.192;2022-09-09T10:32:53;4.78;;;1.27;;
18102;SDS011;9178;51.120;6.192;2022-09-09T10:35:29;3.85;;;1.00;;
18102;SDS011;9178;51.120;6.192;2022-09-09T10:38:14;4.63;;;0.90;;
18102;SDS011;9178;51.120;6.192;2022-09-09T10:40:46;1.83;;;0.80;;
18102;SDS011;9178;51.120;6.192;2022-09-09T10:43:33;4.60;;;0.70;;
18102;SDS011;9178;51.120;6.192;2022-09-09T10:46:14;6.53;;;1.10;;
18102;SDS011;9178;51.120;6.192;2022-09-09T10:48:54;5.30;;;0.98;;
18102;SDS011;9178;51.120;6.192;2022-09-09T10:51:33;2.20;;;0.90;;
18102;SDS011;9178;51.120;6.192;2022-09-09T10:54:10;2.33;;;0.80;;
18102;SDS011;9178;51.120;6.192;2022-09-09T10:56:49;2.53;;;0.63;;
18102;SDS011;9178;51.120;6.192;2022-09-09T10:59:22;3.00;;;0.90;;
18102;SDS011;9178;51.120;6.192;2022-09-09T11:01:55;6.35;;;0.82;;
18102;SDS011;9178;51.120;6.192;2022-09-09T11:04:27;3.55;;;0.75;;
18102;SDS011;9178;51.120;6.192;2022-09-09T11:06:59;1.85;;;0.70;;
18102;SDS011;9178;51.120;6.192;2022-09-09T11:09:31;4.10;;;0.80;;
18102;SDS011;9178;51.120;6.192;2022-09-09T11:12:02;1.60;;;0.60;;
18102;SDS011;9178;51.120;6.192;2022-09-09T11:14:32;1.02;;;0.50;;
18102;SDS011;9178;51.120;6.192;2022-09-09T11:17:04;3.15;;;0.60;;
18102;SDS011;9178;51.120;6.192;2022-09-09T11:19:38;1.20;;;0.43;;
18102;SDS011;9178;51.120;6.192;2022-09-09T11:22:06;1.90;;;0.70;;
18102;SDS011;9178;51.120;6.192;2022-09-09T11:24:40;2.65;;;0.60;;
18102;SDS011;9178;51.120;6.192;2022-09-09T11:27:13;4.78;;;0.80;;
18102;SDS011;9178;51.120;6.192;2022-09-09T11:29:47;3.45;;;1.17;;
18102;SDS011;9178;51.120;6.192;2022-09-09T11:33:00;6.00;;;0.93;;
18102;SDS011;9178;51.120;6.192;2022-09-09T11:35:48;2.20;;;0.68;;
18102;SDS011;9178;51.120;6.192;2022-09-09T11:38:27;3.63;;;0.70;;
18102;SDS011;9178;51.120;6.192;2022-09-09T11:40:58;2.47;;;0.60;;
18102;SDS011;9178;51.120;6.192;2022-09-09T11:43:30;3.67;;;0.90;;
18102;SDS011;9178;51.120;6.192;2022-09-09T11:46:00;3.70;;;1.02;;
18102;SDS011;9178;51.120;6.192;2022-09-09T11:48:31;3.30;;;0.60;;
18102;SDS011;9178;51.120;6.192;2022-09-09T11:51:00;5.88;;;0.77;;
18102;SDS011;9178;51.120;6.192;2022-09-09T11:53:33;3.70;;;1.20;;
18102;SDS011;9178;51.120;6.192;2022-09-09T11:56:11;3.10;;;0.80;;
18102;SDS011;9178;51.120;6.192;2022-09-09T11:58:41;3.20;;;0.55;;
18102;SDS011;9178;51.120;6.192;2022-09-09T12:01:14;2.20;;;0.90;;
18102;SDS011;9178;51.120;6.192;2022-09-09T12:04:05;3.60;;;0.95;;
18102;SDS011;9178;51.120;6.192;2022-09-09T12:06:53;6.45;;;1.05;;
18102;SDS011;9178;51.120;6.192;2022-09-09T12:09:27;4.93;;;1.17;;
18102;SDS011;9178;51.120;6.192;2022-09-09T12:12:05;2.90;;;1.00;;
18102;SDS011;9178;51.120;6.192;2022-09-09T12:14:35;3.38;;;0.85;;
18102;SDS011;9178;51.120;6.192;2022-09-09T12:17:16;2.80;;;0.95;;
18102;SDS011;9178;51.120;6.192;2022-09-09T12:19:47;2.10;;;0.90;;
18102;SDS011;9178;51.120;6.192;2022-09-09T12:22:16;2.70;;;1.08;;
18102;SDS011;9178;51.120;6.192;2022-09-09T12:24:58;2.97;;;1.02;;
18102;SDS011;9178;51.120;6.192;2022-09-09T12:27:35;2.78;;;0.70;;
18102;SDS011;9178;51.120;6.192;2022-09-09T12:30:11;3.72;;;0.95;;
18102;SDS011;9178;51.120;6.192;2022-09-09T12:32:40;4.65;;;0.90;;
18102;SDS011;9178;51.120;6.192;2022-09-09T12:35:11;4.28;;;0.98;;
18102;SDS011;9178;51.120;6.192;2022-09-09T12:37:45;3.33;;;0.70;;
18102;SDS011;9178;51.120;6.192;2022-09-09T12:40:19;4.55;;;1.00;;
18102;SDS011;9178;51.120;6.192;2022-09-09T12:42:50;3.05;;;0.90;;
18102;SDS011;9178;51.120;6.192;2022-09-09T12:45:18;4.78;;;0.80;;
18102;SDS011;9178;51.120;6.192;2022-09-09T12:47:47;6.07;;;1.23;;
18102;SDS011;9178;51.120;6.192;2022-09-09T12:50:20;2.08;;;0.90;;
18102;SDS011;9178;51.120;6.192;2022-09-09T12:52:50;1.63;;;0.90;;
18102;SDS011;9178;51.120;6.192;2022-09-09T12:55:21;3.17;;;0.82;;
18102;SDS011;9178;51.120;6.192;2022-09-09T12:57:53;2.78;;;0.80;;
18102;SDS011;9178;51.120;6.192;2022-09-09T13:00:23;3.47;;;0.70;;
18102;SDS011;9178;51.120;6.192;2022-09-09T13:02:52;1.98;;;0.57;;
18102;SDS011;9178;51.120;6.192;2022-09-09T13:05:23;4.13;;;1.00;;
18102;SDS011;9178;51.120;6.192;2022-09-09T13:07:59;2.08;;;0.80;;
18102;SDS011;9178;51.120;6.192;2022-09-09T13:10:28;1.70;;;0.73;;
18102;SDS011;9178;51.120;6.192;2022-09-09T13:12:58;1.73;;;0.90;;
18102;SDS011;9178;51.120;6.192;2022-09-09T13:15:26;2.40;;;0.73;;
18102;SDS011;9178;51.120;6.192;2022-09-09T13:17:55;3.88;;;0.80;;
18102;SDS011;9178;51.120;6.192;2022-09-09T13:20:27;4.50;;;0.95;;
18102;SDS011;9178;51.120;6.192;2022-09-09T13:22:56;3.92;;;0.80;;
18102;SDS011;9178;51.120;6.192;2022-09-09T13:25:23;2.53;;;0.95;;
18102;SDS011;9178;51.120;6.192;2022-09-09T13:27:56;1.83;;;0.57;;
18102;SDS011;9178;51.120;6.192;2022-09-09T13:30:27;2.15;;;0.63;;
18102;SDS011;9178;51.120;6.192;2022-09-09T13:33:03;1.55;;;0.70;;
18102;SDS011;9178;51.120;6.192;2022-09-09T13:35:49;2.80;;;0.60;;
18102;SDS011;9178;51.120;6.192;2022-09-09T13:38:19;7.53;;;1.63;;
18102;SDS011;9178;51.120;6.192;2022-09-09T13:40:54;5.53;;;0.85;;
18102;SDS011;9178;51.120;6.192;2022-09-09T13:43:24;2.70;;;0.60;;
18102;SDS011;9178;51.120;6.192;2022-09-09T13:45:52;4.18;;;0.45;;
18102;SDS011;9178;51.120;6.192;2022-09-09T13:48:21;0.70;;;0.30;;
18102;SDS011;9178;51.120;6.192;2022-09-09T13:50:54;1.58;;;0.40;;
18102;SDS011;9178;51.120;6.192;2022-09-09T13:53:22;1.63;;;0.50;;
18102;SDS011;9178;51.120;6.192;2022-09-09T13:55:49;0.95;;;0.50;;
18102;SDS011;9178;51.120;6.192;2022-09-09T13:58:19;3.55;;;0.60;;
18102;SDS011;9178;51.120;6.192;2022-09-09T14:00:47;1.55;;;0.52;;
18102;SDS011;9178;51.120;6.192;2022-09-09T14:03:14;2.30;;;0.50;;
18102;SDS011;9178;51.120;6.192;2022-09-09T14:05:41;3.13;;;0.50;;
18102;SDS011;9178;51.120;6.192;2022-09-09T14:08:14;2.55;;;0.30;;
18102;SDS011;9178;51.120;6.192;2022-09-09T14:10:46;2.83;;;0.50;;
18102;SDS011;9178;51.120;6.192;2022-09-09T14:13:13;1.13;;;0.20;;
18102;SDS011;9178;51.120;6.192;2022-09-09T14:15:40;1.85;;;0.20;;
18102;SDS011;9178;51.120;6.192;2022-09-09T14:18:08;1.27;;;0.25;;
18102;SDS011;9178;51.120;6.192;2022-09-09T14:20:38;0.35;;;0.20;;
18102;SDS011;9178;51.120;6.192;2022-09-09T14:23:05;1.95;;;0.22;;
18102;SDS011;9178;51.120;6.192;2022-09-09T14:25:33;1.50;;;0.20;;
18102;SDS011;9178;51.120;6.192;2022-09-09T14:28:00;1.02;;;0.30;;
18102;SDS011;9178;51.120;6.192;2022-09-09T14:30:29;1.27;;;0.30;;
18102;SDS011;9178;51.120;6.192;2022-09-09T14:32:56;1.17;;;0.40;;
18102;SDS011;9178;51.120;6.192;2022-09-09T14:35:23;0.47;;;0.30;;
18102;SDS011;9178;51.120;6.192;2022-09-09T14:37:50;1.10;;;0.40;;
18102;SDS011;9178;51.120;6.192;2022-09-09T14:40:17;1.05;;;0.50;;
18102;SDS011;9178;51.120;6.192;2022-09-09T14:42:45;0.32;;;0.28;;
18102;SDS011;9178;51.120;6.192;2022-09-09T14:45:12;2.28;;;0.32;;
18102;SDS011;9178;51.120;6.192;2022-09-09T14:47:39;0.90;;;0.50;;
18102;SDS011;9178;51.120;6.192;2022-09-09T14:50:06;1.58;;;0.50;;
18102;SDS011;9178;51.120;6.192;2022-09-09T14:52:34;1.02;;;0.60;;
18102;SDS011;9178;51.120;6.192;2022-09-09T14:55:03;1.58;;;0.40;;
18102;SDS011;9178;51.120;6.192;2022-09-09T14:57:31;2.15;;;0.70;;
18102;SDS011;9178;51.120;6.192;2022-09-09T14:59:59;3.35;;;0.55;;
18102;SDS011;9178;51.120;6.192;2022-09-09T15:02:26;0.85;;;0.57;;
18102;SDS011;9178;51.120;6.192;2022-09-09T15:04:53;3.97;;;0.93;;
18102;SDS011;9178;51.120;6.192;2022-09-09T15:07:22;2.33;;;0.77;;
18102;SDS011;9178;51.120;6.192;2022-09-09T15:09:49;3.65;;;0.90;;
18102;SDS011;9178;51.120;6.192;2022-09-09T15:12:17;2.65;;;0.70;;
18102;SDS011;9178;51.120;6.192;2022-09-09T15:14:45;3.70;;;0.90;;
18102;SDS011;9178;51.120;6.192;2022-09-09T15:17:14;2.45;;;0.70;;
18102;SDS011;9178;51.120;6.192;2022-09-09T15:19:41;1.80;;;0.90;;
18102;SDS011;9178;51.120;6.192;2022-09-09T15:22:08;6.22;;;1.10;;
18102;SDS011;9178;51.120;6.192;2022-09-09T15:24:35;2.95;;;1.00;;
18102;SDS011;9178;51.120;6.192;2022-09-09T15:27:01;3.05;;;0.75;;